Flight Track Log - Related Links

Times and Time Zones

All times are in EDT time to prevent confusion due to time zone crossing. See the SKW5631 flight status page for this flight to view local times or setup timezone preferences in your user account.

Time Position Orientation Groundspeed Altitude Reporting Facility
EDT Latitude Longitude Course Direction KTS MPH feet Rate Location/Type
Thu 06:37:52 PM 37.6333 -122.3667 58° Northeast 143 165 600  Level Northern Cal TRACON
Thu 06:38:46 PM 37.6500 -122.3333 58° Northeast 169 194 1,800 1,368 Climbing Northern Cal TRACON
Thu 06:39:46 PM 37.7000 -122.2833 38° Northeast 193 222 3,200 1,500 Climbing Northern Cal TRACON
Thu 06:40:02 PM 37.6989 -122.2681 95° East 183 211 3,700 1,692 Climbing Oakland Center
Thu 06:41:04 PM 37.7283 -122.2108 57° Northeast 200 230 5,400 1,610 Climbing Oakland Center
Thu 06:42:05 PM 37.7389 -122.1417 79° East 201 231 7,000 1,623 Climbing Oakland Center
Thu 06:43:06 PM 37.7258 -122.0736 104° East 203 234 8,700 1,756 Climbing Oakland Center
Thu 06:44:08 PM 37.7039 -122.0092 113° Southeast 201 231 10,600 1,756 Climbing Oakland Center
Thu 06:45:09 PM 37.6819 -121.9472 114° Southeast 195 224 12,300 1,574 Climbing Oakland Center
Thu 06:46:10 PM 37.6606 -121.8853 114° Southeast 193 222 13,800 1,485 Climbing Oakland Center
Thu 06:46:46 PM 37.6333 -121.8333 123° Southeast 215 247 14,700 1,272 Climbing Northern Cal TRACON
Thu 06:49:14 PM 37.5753 -121.6575 113° Southeast 229 264 17,700 1,114 Climbing Oakland Center
Thu 06:50:16 PM 37.5489 -121.5828 114° Southeast 233 268 18,600 732 Climbing Oakland Center
Thu 06:51:17 PM 37.5144 -121.5086 120° Southeast 242 278 19,200 689 Climbing Oakland Center
Thu 06:52:18 PM 37.4761 -121.4336 123° Southeast 252 290 20,000 780 Climbing Oakland Center
Thu 06:53:20 PM 37.4394 -121.3569 121° Southeast 255 293 20,800 683 Climbing Oakland Center
Thu 06:54:21 PM 37.4033 -121.2800 121° Southeast 255 293 21,400 590 Climbing Oakland Center
Thu 06:55:22 PM 37.3667 -121.2008 120° Southeast 259 298 22,000 639 Climbing Oakland Center
Thu 06:56:23 PM 37.3275 -121.1253 123° Southeast 259 298 22,700 488 Climbing Oakland Center
Thu 06:57:25 PM 37.2817 -121.0331 122° Southeast 259 298 23,000 146 Climbing Oakland Center
Thu 06:58:26 PM 37.2431 -120.9525 121° Southeast 265 305 23,000  Level Oakland Center
Thu 06:59:27 PM 37.2053 -120.8722 121° Southeast 268 308 23,000  Level Oakland Center
Thu 07:00:28 PM 37.1656 -120.7931 122° Southeast 273 314 23,000  Level Oakland Center
Thu 07:01:29 PM 37.1289 -120.7150 120° Southeast 266 306 23,000  Level Oakland Center
Thu 07:02:31 PM 37.0889 -120.6378 123° Southeast 262 302 23,000  Level Oakland Center
Thu 07:03:32 PM 37.0536 -120.5603 120° Southeast 265 305 23,000  Level Oakland Center
Thu 07:04:33 PM 37.0147 -120.4831 122° Southeast 260 299 23,000  Level Oakland Center
Thu 07:05:34 PM 36.9758 -120.4061 122° Southeast 262 302 23,000  Level Oakland Center
Thu 07:06:36 PM 36.9308 -120.3131 121° Southeast 260 299 23,000  Level Oakland Center
Thu 07:07:37 PM 36.8922 -120.2361 122° Southeast 261 300 23,000  Level Oakland Center
Thu 07:08:38 PM 36.8539 -120.1586 122° Southeast 260 299 23,000  Level Oakland Center
Thu 07:09:40 PM 36.8158 -120.0814 122° Southeast 262 302 23,000  Level Oakland Center
Thu 07:10:41 PM 36.7772 -120.0033 122° Southeast 263 303 23,000  Level Oakland Center
Thu 07:11:42 PM 36.7383 -119.9258 122° Southeast 264 304 23,000  Level Oakland Center
Thu 07:12:44 PM 36.6994 -119.8472 122° Southeast 266 306 23,000  Level Oakland Center
Thu 07:13:45 PM 36.6608 -119.7686 121° Southeast 266 306 23,000  Level Oakland Center
Thu 07:14:46 PM 36.6225 -119.6906 121° Southeast 264 304 23,000  Level Oakland Center
Thu 07:15:48 PM 36.5614 -119.6461 150° Southeast 260 299 23,000  Level Oakland Center
Thu 07:16:49 PM 36.4819 -119.6036 157° South 258 297 23,000  Level Oakland Center
Thu 07:17:50 PM 36.4156 -119.5689 157° South 258 297 23,000  Level Oakland Center
Thu 07:18:52 PM 36.3494 -119.5342 157° South 258 297 23,000  Level Oakland Center
Thu 07:19:53 PM 36.2831 -119.5014 158° South 257 296 23,000 -585 Level Oakland Center
Thu 07:20:55 PM 36.2111 -119.4647 158° South 277 319 21,800 -1,073 Descending Oakland Center
Thu 07:21:56 PM 36.1306 -119.4239 158° South 311 358 20,800 -1,082 Descending Oakland Center
Thu 07:22:57 PM 36.0492 -119.3822 158° South 316 364 19,600 -1,122 Descending Oakland Center
Thu 07:23:59 PM 35.9667 -119.3431 159° South 316 364 18,500 -976 Descending Oakland Center
Thu 07:25:00 PM 35.8897 -119.3025 157° South 304 350 17,600 -1,122 Descending Oakland Center
Thu 07:26:02 PM 35.7964 -119.2561 158° South 301 346 16,200 -1,268 Descending Oakland Center
Thu 07:27:03 PM 35.7200 -119.2172 158° South 298 343 15,000 -1,415 Descending Oakland Center
Thu 07:28:05 PM 35.6475 -119.1811 158° South 289 333 13,300 -1,768 Descending Oakland Center
Thu 07:28:38 PM 35.6225 -119.1639 151° Southeast 275 316 12,200 -3,032 Descending Los Angeles Center
Thu 07:29:40 PM 35.5608 -119.0825 133° Southeast 271 312 8,500 -2,468 Descending Los Angeles Center
Thu 07:30:42 PM 35.5119 -119.0178 133° Southeast 269 310 7,100 -1,355 Descending Los Angeles Center
Thu 07:31:44 PM 35.4717 -118.9625 132° Southeast 248 285 5,700 -1,258 Descending Los Angeles Center
Thu 07:32:46 PM 35.4253 -118.9433 161° South 221 254 4,500 -1,161 Descending Los Angeles Center
Thu 07:35:00 PM 35.4333 -119.0500 151° Southeast  Level FlightAware Approximate
Thu 07:42:00 PM 35.4339 -119.0577 151° Southeast  Level Estimated

Login

Don't have an account? Register now (free) for customized features, flight alerts, and more!